createdAt,value
2023-01-13T00:01:29.672Z,47.50
2023-01-13T00:03:58.376Z,44.00
2023-01-13T00:06:27.151Z,45.33
2023-01-13T00:08:55.738Z,46.00
2023-01-13T00:11:24.728Z,44.00
2023-01-13T00:13:53.114Z,41.00
2023-01-13T00:16:21.837Z,42.50
2023-01-13T00:18:51.605Z,43.00
2023-01-13T00:21:24.900Z,44.00
2023-01-13T00:23:54.710Z,42.00
2023-01-13T00:26:26.017Z,41.50
2023-01-13T00:28:59.562Z,43.00
2023-01-13T00:31:29.429Z,44.00
2023-01-13T00:34:01.678Z,39.00
2023-01-13T00:36:31.088Z,42.00
2023-01-13T00:38:59.428Z,42.50
2023-01-13T00:41:28.418Z,41.33
2023-01-13T00:43:56.708Z,42.00
2023-01-13T00:46:25.158Z,40.33
2023-01-13T00:48:54.487Z,43.33
2023-01-13T00:51:22.969Z,38.33
2023-01-13T00:53:52.394Z,36.50
2023-01-13T00:56:38.591Z,38.67
2023-01-13T00:59:11.273Z,34.50
2023-01-13T01:01:40.224Z,38.00
2023-01-13T01:04:08.722Z,38.00
2023-01-13T01:06:37.100Z,39.00
2023-01-13T01:09:06.412Z,30.50
2023-01-13T01:11:35.313Z,38.00
2023-01-13T01:14:04.694Z,36.00
2023-01-13T01:16:34.907Z,35.00
2023-01-13T01:19:04.231Z,39.50
2023-01-13T01:21:33.624Z,39.33
2023-01-13T01:24:03.436Z,33.00
2023-01-13T01:26:32.118Z,37.50
2023-01-13T01:29:02.595Z,36.67
2023-01-13T01:31:33.588Z,32.00
2023-01-13T01:34:02.071Z,33.50
2023-01-13T01:36:30.752Z,33.00
2023-01-13T01:38:59.861Z,35.00
2023-01-13T01:41:32.049Z,34.00
2023-01-13T01:44:38.810Z,35.00
2023-01-13T01:47:08.115Z,30.00
2023-01-13T01:49:38.446Z,34.00
2023-01-13T01:52:15.103Z,35.33
2023-01-13T01:54:57.831Z,31.50
2023-01-13T01:57:32.490Z,29.50
2023-01-13T02:00:01.539Z,33.00
2023-01-13T02:02:30.966Z,35.50
2023-01-13T02:04:59.769Z,32.50
2023-01-13T02:07:30.588Z,35.00
2023-01-13T02:10:02.435Z,30.00
2023-01-13T02:12:32.196Z,32.50
2023-01-13T02:15:05.888Z,29.00
2023-01-13T02:17:40.366Z,31.00
2023-01-13T02:20:24.003Z,30.00
2023-01-13T02:23:30.783Z,31.00
2023-01-13T02:26:34.292Z,30.00
2023-01-13T02:29:52.043Z,25.00
2023-01-13T02:32:26.735Z,29.50
2023-01-13T02:35:26.870Z,30.00
2023-01-13T02:37:57.722Z,28.00
2023-01-13T02:40:33.112Z,28.00
2023-01-13T02:43:37.177Z,30.00
2023-01-13T02:46:12.259Z,29.50
2023-01-13T02:48:44.780Z,27.00
2023-01-13T02:51:16.653Z,30.50
2023-01-13T02:54:00.092Z,26.33
2023-01-13T02:56:30.198Z,25.00
2023-01-13T02:59:00.015Z,24.00
2023-01-13T03:01:28.713Z,25.00
2023-01-13T03:03:57.286Z,28.75
2023-01-13T03:06:44.809Z,23.25
2023-01-13T03:09:22.109Z,25.00
2023-01-13T03:12:13.419Z,28.50
2023-01-13T03:14:50.913Z,26.00
2023-01-13T03:17:32.091Z,26.33
2023-01-13T03:20:18.918Z,26.75
2023-01-13T03:23:02.547Z,27.00
2023-01-13T03:26:05.325Z,25.00
2023-01-13T03:28:41.102Z,26.00
2023-01-13T03:31:15.499Z,24.67
2023-01-13T03:33:56.116Z,25.00
2023-01-13T03:36:26.933Z,20.33
2023-01-13T03:38:59.698Z,20.00
2023-01-13T03:41:34.204Z,17.00
2023-01-13T03:44:27.553Z,23.50
2023-01-13T03:46:59.225Z,20.67
2023-01-13T03:49:33.713Z,23.00
2023-01-13T03:52:05.428Z,19.50
2023-01-13T03:54:38.117Z,27.67
2023-01-13T03:57:10.126Z,24.00
2023-01-13T03:59:42.783Z,22.00
2023-01-13T04:02:16.811Z,24.00
2023-01-13T04:05:09.486Z,19.50
2023-01-13T04:07:53.036Z,21.33
2023-01-13T04:10:29.292Z,23.00
2023-01-13T04:13:08.535Z,22.00
2023-01-13T04:15:39.701Z,16.67
2023-01-13T04:18:15.302Z,18.50
2023-01-13T04:20:45.861Z,22.00
2023-01-13T04:23:15.332Z,20.67
2023-01-13T04:25:45.596Z,18.00
2023-01-13T04:28:14.815Z,18.50
2023-01-13T04:30:43.532Z,19.00
2023-01-13T04:33:13.893Z,17.00
2023-01-13T04:35:42.386Z,19.00
2023-01-13T04:38:13.572Z,20.50
2023-01-13T04:40:42.311Z,21.00
2023-01-13T04:43:10.683Z,12.75
2023-01-13T04:45:39.511Z,19.25
2023-01-13T04:48:08.262Z,15.33
2023-01-13T04:50:37.164Z,19.00
2023-01-13T04:53:06.250Z,17.00
2023-01-13T04:55:35.659Z,19.00
2023-01-13T04:58:08.799Z,15.00
2023-01-13T05:00:37.951Z,18.50
2023-01-13T05:03:06.418Z,16.00
2023-01-13T05:05:35.272Z,13.50
2023-01-13T05:08:04.316Z,15.00
2023-01-13T05:10:32.686Z,16.67
2023-01-13T05:13:19.601Z,14.67
2023-01-13T05:16:07.031Z,17.00
2023-01-13T05:18:35.720Z,16.00
2023-01-13T05:21:04.299Z,15.00
2023-01-13T05:23:51.419Z,19.00
2023-01-13T05:26:19.898Z,10.50
2023-01-13T05:28:48.379Z,14.00
2023-01-13T05:31:16.891Z,13.00
2023-01-13T05:33:45.351Z,17.67
2023-01-13T05:36:13.724Z,12.33
2023-01-13T05:38:42.508Z,15.00
2023-01-13T05:41:40.278Z,14.00
2023-01-13T05:44:08.771Z,16.25
2023-01-13T05:46:38.259Z,15.00
2023-01-13T05:49:06.652Z,15.33
2023-01-13T05:51:35.025Z,16.75
2023-01-13T05:54:03.507Z,13.50
2023-01-13T05:56:31.891Z,16.25
2023-01-13T05:59:00.161Z,14.50
2023-01-13T06:01:28.586Z,14.00
2023-01-13T06:03:57.165Z,14.67
2023-01-13T06:06:25.711Z,10.25
2023-01-13T06:08:54.093Z,15.50
2023-01-13T06:11:22.471Z,14.00
2023-01-13T06:13:50.860Z,15.00
2023-01-13T06:16:19.379Z,12.33
2023-01-13T06:18:47.914Z,14.33
2023-01-13T06:21:16.297Z,13.50
2023-01-13T06:23:44.900Z,12.00
2023-01-13T06:26:20.008Z,14.00
2023-01-13T06:28:50.343Z,13.00
2023-01-13T06:31:19.264Z,12.00
2023-01-13T06:33:54.662Z,15.67
2023-01-13T06:36:26.130Z,13.00
2023-01-13T06:38:57.589Z,12.75
2023-01-13T06:41:47.567Z,9.00
2023-01-13T06:44:16.048Z,10.50
2023-01-13T06:46:44.595Z,15.50
2023-01-13T06:49:13.326Z,12.00
2023-01-13T06:51:41.605Z,11.67
2023-01-13T06:54:10.072Z,8.33
2023-01-13T06:56:38.457Z,8.00
2023-01-13T06:59:07.039Z,13.00
2023-01-13T07:01:35.446Z,12.25
2023-01-13T07:04:04.517Z,13.75
2023-01-13T07:06:32.898Z,10.50
2023-01-13T07:09:01.432Z,10.00
2023-01-13T07:11:30.167Z,10.67
2023-01-13T07:14:17.293Z,11.33
2023-01-13T07:16:45.673Z,10.50
2023-01-13T07:19:14.150Z,9.00
2023-01-13T07:21:42.634Z,9.50
2023-01-13T07:24:11.210Z,11.33
2023-01-13T07:26:39.727Z,8.67
2023-01-13T07:29:08.176Z,12.00
2023-01-13T07:31:37.102Z,14.00
2023-01-13T07:34:06.852Z,11.00
2023-01-13T07:36:35.674Z,11.00
2023-01-13T07:39:04.150Z,11.00
2023-01-13T07:41:51.168Z,11.00
2023-01-13T07:44:19.653Z,11.00
2023-01-13T07:46:48.129Z,11.00
2023-01-13T07:49:16.621Z,13.00
2023-01-13T07:51:44.995Z,19.00
2023-01-13T07:54:13.378Z,20.00
2023-01-13T07:56:41.859Z,25.67
2023-01-13T07:59:10.441Z,20.00
2023-01-13T08:01:39.007Z,23.75
2023-01-13T08:04:07.512Z,28.00
2023-01-13T08:06:37.011Z,21.00
2023-01-13T08:09:05.493Z,24.50
2023-01-13T08:11:33.869Z,25.00
2023-01-13T08:14:02.760Z,21.00
2023-01-13T08:16:33.820Z,19.25
2023-01-13T08:19:02.187Z,25.67
2023-01-13T08:21:30.565Z,20.33
2023-01-13T08:23:59.038Z,23.00
2023-01-13T08:26:28.141Z,17.75
2023-01-13T08:28:56.525Z,18.33
2023-01-13T08:31:25.069Z,20.50
2023-01-13T08:33:53.795Z,17.33
2023-01-13T08:36:22.289Z,19.50
2023-01-13T08:38:50.753Z,13.00
2023-01-13T08:41:39.315Z,17.50
2023-01-13T08:44:09.741Z,16.33
2023-01-13T08:46:38.321Z,16.00
2023-01-13T08:49:06.701Z,18.50
2023-01-13T08:51:35.084Z,18.00
2023-01-13T08:54:03.666Z,18.00
2023-01-13T08:56:35.143Z,17.00
2023-01-13T08:59:03.929Z,12.50
2023-01-13T09:01:33.179Z,17.00
2023-01-13T09:04:01.739Z,17.33
2023-01-13T09:06:30.264Z,15.75
2023-01-13T09:08:59.776Z,13.50
2023-01-13T09:11:52.831Z,13.00
2023-01-13T09:14:23.878Z,13.25
2023-01-13T09:16:52.255Z,13.50
2023-01-13T09:19:20.646Z,11.50
2023-01-13T09:21:49.230Z,14.00
2023-01-13T09:24:17.708Z,9.50
2023-01-13T09:26:46.194Z,13.00
2023-01-13T09:29:15.273Z,9.67
2023-01-13T09:31:44.372Z,9.00
2023-01-13T09:34:37.035Z,11.00
2023-01-13T09:37:07.061Z,10.25
2023-01-13T09:39:36.757Z,12.75
2023-01-13T09:42:56.441Z,13.33
2023-01-13T09:45:43.242Z,14.33
2023-01-13T09:48:23.499Z,16.00
2023-01-13T09:51:01.620Z,13.50
2023-01-13T09:53:33.867Z,13.67
2023-01-13T09:56:02.466Z,12.50
2023-01-13T09:58:30.840Z,17.25
2023-01-13T10:01:18.117Z,10.50
2023-01-13T10:03:46.662Z,11.33
2023-01-13T10:06:22.024Z,21.25
2023-01-13T10:08:51.377Z,15.00
2023-01-13T10:11:40.764Z,13.00
2023-01-13T10:14:20.421Z,16.00
2023-01-13T10:16:58.736Z,11.33
2023-01-13T10:19:31.388Z,15.00
2023-01-13T10:22:33.476Z,20.00
2023-01-13T10:25:18.543Z,17.33
2023-01-13T10:27:50.392Z,15.00
2023-01-13T10:30:22.635Z,16.00
2023-01-13T10:32:55.672Z,17.50
2023-01-13T10:35:56.532Z,18.33
2023-01-13T10:38:41.571Z,18.00
2023-01-13T10:41:16.101Z,15.00
2023-01-13T10:44:07.726Z,16.75
2023-01-13T10:46:55.071Z,17.67
2023-01-13T10:49:28.745Z,13.25
2023-01-13T10:51:57.131Z,15.25
2023-01-13T10:54:26.529Z,16.00
2023-01-13T10:57:18.264Z,18.67
2023-01-13T10:59:48.072Z,13.33
2023-01-13T11:02:27.200Z,16.75
2023-01-13T11:04:55.847Z,20.00
2023-01-13T11:07:36.697Z,16.00
2023-01-13T11:10:27.702Z,16.25
2023-01-13T11:13:21.338Z,17.50
2023-01-13T11:16:10.879Z,14.33
2023-01-13T11:19:13.709Z,14.00
2023-01-13T11:21:48.117Z,13.50
2023-01-13T11:24:50.739Z,14.33
2023-01-13T11:27:37.194Z,14.33
2023-01-13T11:30:36.617Z,15.33
2023-01-13T11:33:10.999Z,14.50
2023-01-13T11:35:58.323Z,13.50
2023-01-13T11:38:28.797Z,15.00
2023-01-13T11:41:03.384Z,14.00
2023-01-13T11:43:45.425Z,15.00
2023-01-13T11:46:13.855Z,11.00
2023-01-13T11:48:43.077Z,18.00
2023-01-13T11:51:14.393Z,13.33
2023-01-13T11:53:54.641Z,14.00
2023-01-13T11:56:50.564Z,12.75
2023-01-13T11:59:24.627Z,10.50
2023-01-13T12:02:28.011Z,14.00
2023-01-13T12:05:30.569Z,15.00
2023-01-13T12:08:42.850Z,12.25
2023-01-13T12:11:24.452Z,15.00
2023-01-13T12:14:15.374Z,14.00
2023-01-13T12:16:49.204Z,12.00
2023-01-13T12:19:32.661Z,13.33
2023-01-13T12:22:11.413Z,15.50
2023-01-13T12:24:56.170Z,12.50
2023-01-13T12:27:27.433Z,13.33
2023-01-13T12:29:59.871Z,12.00
2023-01-13T12:32:34.945Z,13.00
2023-01-13T12:35:39.527Z,11.00
2023-01-13T12:38:21.363Z,12.00
2023-01-13T12:41:24.955Z,11.00
2023-01-13T12:44:12.430Z,9.00
2023-01-13T12:46:57.597Z,10.67
2023-01-13T12:49:36.508Z,13.00
2023-01-13T12:52:14.628Z,11.00
2023-01-13T12:54:43.729Z,12.50
2023-01-13T12:57:20.465Z,9.00
2023-01-13T13:00:04.171Z,9.67
2023-01-13T13:02:40.849Z,11.00
2023-01-13T13:05:15.704Z,9.50
2023-01-13T13:07:47.048Z,8.50
2023-01-13T13:10:24.784Z,8.33
2023-01-13T13:13:13.549Z,9.50
2023-01-13T13:15:42.223Z,8.67
2023-01-13T13:18:29.185Z,6.50
2023-01-13T13:21:09.284Z,11.00
2023-01-13T13:23:46.074Z,8.00
2023-01-13T13:26:20.513Z,8.50
2023-01-13T13:29:15.016Z,9.00
2023-01-13T13:32:20.456Z,7.00
2023-01-13T13:35:04.677Z,7.33
2023-01-13T13:38:28.288Z,8.00
2023-01-13T13:41:14.950Z,3.00
2023-01-13T13:44:03.717Z,6.50
2023-01-13T13:46:47.046Z,9.00
2023-01-13T13:49:18.037Z,8.67
2023-01-13T13:52:00.888Z,6.50
2023-01-13T13:54:29.533Z,8.00
2023-01-13T13:56:59.184Z,6.00
2023-01-13T13:59:33.877Z,7.50
2023-01-13T14:02:04.146Z,8.50
2023-01-13T14:04:37.197Z,7.33
2023-01-13T14:07:21.267Z,8.50
2023-01-13T14:09:54.594Z,10.50
2023-01-13T14:12:25.658Z,12.50
2023-01-13T14:14:57.765Z,13.00
2023-01-13T14:17:26.753Z,12.00
2023-01-13T14:20:08.216Z,14.00
2023-01-13T14:22:36.723Z,10.00
2023-01-13T14:25:28.750Z,10.50
2023-01-13T14:27:59.436Z,9.00
2023-01-13T14:30:28.066Z,10.00
2023-01-13T14:32:56.683Z,7.50
2023-01-13T14:35:25.079Z,10.50
2023-01-13T14:38:01.760Z,10.67
2023-01-13T14:40:44.765Z,9.50
2023-01-13T14:43:16.608Z,10.67
2023-01-13T14:46:01.461Z,5.50
2023-01-13T14:48:37.579Z,10.50
2023-01-13T14:51:10.950Z,8.67
2023-01-13T14:53:43.925Z,9.00
2023-01-13T14:56:40.357Z,10.00
2023-01-13T14:59:34.654Z,8.00
2023-01-13T15:02:25.788Z,7.50
2023-01-13T15:04:59.292Z,11.00
2023-01-13T15:07:31.795Z,7.00
2023-01-13T15:10:01.952Z,11.25
2023-01-13T15:12:30.112Z,8.67
2023-01-13T15:14:58.556Z,11.00
2023-01-13T15:17:26.739Z,11.33
2023-01-13T15:19:55.042Z,10.50
2023-01-13T15:22:23.449Z,7.00
2023-01-13T15:24:51.695Z,13.50
2023-01-13T15:27:24.391Z,12.33
2023-01-13T15:29:52.728Z,11.75
2023-01-13T15:32:22.227Z,10.67
2023-01-13T15:34:53.128Z,13.00
2023-01-13T15:37:21.390Z,11.00
2023-01-13T15:39:49.677Z,9.00
2023-01-13T15:42:36.556Z,13.33
2023-01-13T15:45:23.624Z,11.00
2023-01-13T15:47:51.902Z,11.33
2023-01-13T15:50:21.013Z,11.00
2023-01-13T15:52:49.354Z,15.50
2023-01-13T15:55:17.630Z,13.50
2023-01-13T15:57:49.286Z,12.75
2023-01-13T16:00:20.535Z,10.50
2023-01-13T16:02:49.787Z,13.00
2023-01-13T16:05:18.033Z,12.00
2023-01-13T16:07:46.386Z,13.75
2023-01-13T16:10:21.676Z,12.00
2023-01-13T16:12:50.022Z,12.00
2023-01-13T16:15:19.209Z,13.00
2023-01-13T16:17:47.677Z,11.00
2023-01-13T16:20:17.635Z,11.00
2023-01-13T16:22:45.942Z,9.25
2023-01-13T16:25:19.945Z,11.67
2023-01-13T16:27:48.417Z,11.33
2023-01-13T16:30:27.013Z,10.00
2023-01-13T16:32:57.084Z,12.00
2023-01-13T16:35:26.592Z,10.00
2023-01-13T16:37:58.501Z,9.33
2023-01-13T16:40:31.178Z,9.00
2023-01-13T16:43:03.843Z,10.75
2023-01-13T16:45:33.082Z,12.75
2023-01-13T16:48:01.579Z,9.33
2023-01-13T16:50:36.210Z,9.00
2023-01-13T16:53:04.879Z,8.67
2023-01-13T16:55:33.275Z,11.00
2023-01-13T16:58:01.524Z,8.50
2023-01-13T17:00:29.991Z,9.50
2023-01-13T17:03:02.900Z,11.50
2023-01-13T17:05:31.257Z,8.50
2023-01-13T17:07:59.607Z,11.25
2023-01-13T17:10:27.871Z,11.67
2023-01-13T17:12:57.071Z,10.00
2023-01-13T17:15:25.357Z,9.00
2023-01-13T17:17:55.490Z,9.00
2023-01-13T17:20:23.708Z,6.67
2023-01-13T17:22:58.011Z,9.50
2023-01-13T17:25:26.708Z,11.00
2023-01-13T17:27:54.985Z,10.67
2023-01-13T17:30:23.346Z,10.33
2023-01-13T17:32:51.682Z,8.00
2023-01-13T17:35:25.035Z,7.50
2023-01-13T17:37:54.057Z,8.75
2023-01-13T17:40:22.427Z,8.00
2023-01-13T17:42:50.693Z,9.33
2023-01-13T17:45:18.969Z,9.00
2023-01-13T17:47:47.581Z,8.00
2023-01-13T17:50:17.632Z,5.00
2023-01-13T17:52:45.911Z,9.00
2023-01-13T17:55:14.134Z,8.33
2023-01-13T17:57:42.375Z,10.00
2023-01-13T18:00:12.551Z,9.00
2023-01-13T18:02:40.785Z,8.00
2023-01-13T18:05:09.478Z,8.33
2023-01-13T18:07:37.689Z,9.50
2023-01-13T18:10:06.409Z,8.50
2023-01-13T18:12:35.180Z,12.00
2023-01-13T18:15:03.654Z,11.00
2023-01-13T18:17:31.887Z,10.75
2023-01-13T18:20:18.630Z,7.00
2023-01-13T18:23:05.157Z,10.75
2023-01-13T18:25:51.895Z,8.00
2023-01-13T18:28:20.241Z,7.00
2023-01-13T18:30:48.575Z,11.00
2023-01-13T18:33:16.815Z,12.00
2023-01-13T18:35:45.048Z,8.75
2023-01-13T18:38:23.059Z,8.67
2023-01-13T18:40:51.290Z,6.25
2023-01-13T18:43:19.551Z,9.50
2023-01-13T18:45:50.524Z,9.50
2023-01-13T18:48:18.783Z,10.50
2023-01-13T18:50:46.996Z,9.67
2023-01-13T18:53:15.277Z,8.50
2023-01-13T18:55:43.598Z,8.00
2023-01-13T18:58:12.285Z,8.00
2023-01-13T19:00:40.565Z,7.00
2023-01-13T19:05:42.151Z,8.00
2023-01-13T19:08:10.363Z,6.33
2023-01-13T19:10:39.957Z,12.67
2023-01-13T19:13:08.474Z,9.00
2023-01-13T19:15:37.882Z,8.00
2023-01-13T19:18:06.142Z,8.67
2023-01-13T19:20:34.543Z,9.00
2023-01-13T19:23:02.745Z,7.50
2023-01-13T19:25:31.010Z,10.00
2023-01-13T19:27:59.269Z,10.00
2023-01-13T19:30:27.620Z,10.67
2023-01-13T19:32:56.607Z,6.00
2023-01-13T19:35:24.796Z,8.67
2023-01-13T19:37:54.161Z,8.00
2023-01-13T19:40:22.641Z,9.00
2023-01-13T19:43:09.462Z,8.00
2023-01-13T19:45:37.814Z,10.00
2023-01-13T19:48:07.555Z,10.00
2023-01-13T19:50:37.751Z,10.00
2023-01-13T19:53:06.881Z,8.75
2023-01-13T19:55:35.298Z,8.50
2023-01-13T19:58:04.221Z,11.00
2023-01-13T20:00:32.605Z,10.33
2023-01-13T20:03:03.632Z,10.50
2023-01-13T20:05:32.048Z,8.33
2023-01-13T20:08:00.300Z,10.50
2023-01-13T20:10:30.736Z,8.00
2023-01-13T20:12:59.276Z,11.00
2023-01-13T20:15:27.844Z,8.00
2023-01-13T20:17:58.092Z,9.00
2023-01-13T20:20:27.588Z,10.00
2023-01-13T20:22:55.927Z,9.50
2023-01-13T20:25:24.459Z,10.00
2023-01-13T20:27:53.371Z,9.00
2023-01-13T20:30:22.642Z,7.00
2023-01-13T20:32:51.033Z,11.33
2023-01-13T20:35:19.484Z,8.75
2023-01-13T20:37:47.634Z,9.00
2023-01-13T20:40:16.379Z,11.00
2023-01-13T20:42:47.355Z,11.33
2023-01-13T20:45:19.978Z,9.50
2023-01-13T20:47:48.440Z,9.50
2023-01-13T20:50:17.085Z,12.67
2023-01-13T20:52:46.220Z,5.25
2023-01-13T20:55:15.161Z,8.67
2023-01-13T20:57:43.647Z,9.50
2023-01-13T21:00:13.866Z,10.67
2023-01-13T21:02:42.129Z,10.33
2023-01-13T21:05:10.465Z,8.00
2023-01-13T21:07:38.799Z,11.50
2023-01-13T21:10:08.139Z,11.00
2023-01-13T21:12:54.696Z,7.50
2023-01-13T21:15:23.484Z,11.67
2023-01-13T21:18:10.802Z,9.50
2023-01-13T21:20:39.690Z,8.00
2023-01-13T21:23:09.160Z,8.50
2023-01-13T21:25:39.893Z,12.50
2023-01-13T21:28:11.410Z,10.00
2023-01-13T21:30:40.220Z,10.50
2023-01-13T21:33:10.719Z,9.00
2023-01-13T21:35:39.343Z,12.00
2023-01-13T21:38:07.702Z,9.50
2023-01-13T21:40:36.115Z,7.00
2023-01-13T21:43:22.772Z,9.00
2023-01-13T21:46:09.432Z,10.00
2023-01-13T21:48:37.812Z,10.67
2023-01-13T21:51:06.110Z,7.50
2023-01-13T21:53:34.377Z,7.67
2023-01-13T21:56:02.648Z,11.00
2023-01-13T21:58:30.968Z,9.33
2023-01-13T22:01:01.764Z,8.50
2023-01-13T22:03:30.154Z,10.33
2023-01-13T22:05:58.421Z,9.00
2023-01-13T22:08:26.685Z,11.50
2023-01-13T22:10:58.310Z,8.00
2023-01-13T22:13:46.242Z,8.00
2023-01-13T22:16:16.091Z,11.67
2023-01-13T22:18:44.489Z,11.00
2023-01-13T22:21:12.818Z,15.00
2023-01-13T22:23:41.063Z,11.50
2023-01-13T22:26:09.559Z,9.00
2023-01-13T22:28:42.977Z,10.00
2023-01-13T22:31:15.687Z,8.00
2023-01-13T22:33:47.277Z,10.00
2023-01-13T22:36:15.977Z,10.67
2023-01-13T22:38:44.707Z,8.00
2023-01-13T22:41:13.382Z,8.00
2023-01-13T22:43:41.732Z,9.00
2023-01-13T22:46:12.073Z,8.25
2023-01-13T22:48:41.253Z,8.00
2023-01-13T22:59:12.572Z,10.50
2023-01-13T23:01:42.950Z,7.00
2023-01-13T23:04:14.395Z,8.00
2023-01-13T23:06:43.400Z,7.33
2023-01-13T23:09:11.867Z,8.00
2023-01-13T23:11:40.367Z,5.00
